createdAt,value
2018-10-19T00:01:23.740Z,8.60
2018-10-19T00:03:52.083Z,7.80
2018-10-19T00:06:20.350Z,9.57
2018-10-19T00:08:48.615Z,10.80
2018-10-19T00:11:17.700Z,8.80
2018-10-19T00:13:46.012Z,10.20
2018-10-19T00:16:14.462Z,9.10
2018-10-19T00:18:42.862Z,8.90
2018-10-19T00:21:11.152Z,10.03
2018-10-19T00:23:39.233Z,10.20
2018-10-19T00:26:07.470Z,9.97
2018-10-19T00:28:35.717Z,11.10
2018-10-19T00:31:03.888Z,13.47
2018-10-19T00:33:32.120Z,11.27
2018-10-19T00:36:00.420Z,11.20
2018-10-19T00:38:28.649Z,12.23
2018-10-19T00:40:56.852Z,12.77
2018-10-19T00:43:25.105Z,11.33
2018-10-19T00:45:53.344Z,14.17
2018-10-19T00:48:21.658Z,11.87
2018-10-19T00:50:49.928Z,12.53
2018-10-19T00:53:18.103Z,11.93
2018-10-19T00:55:46.899Z,10.90
2018-10-19T00:58:15.358Z,14.00
2018-10-19T01:00:43.563Z,14.80
2018-10-19T01:03:11.930Z,11.17
2018-10-19T01:05:40.452Z,12.33
2018-10-19T01:08:09.281Z,11.90
2018-10-19T01:10:37.448Z,13.37
2018-10-19T01:13:05.882Z,15.00
2018-10-19T01:15:33.942Z,13.17
2018-10-19T01:18:02.704Z,16.37
2018-10-19T01:20:30.853Z,18.67
2018-10-19T01:22:59.320Z,16.30
2018-10-19T01:25:27.982Z,14.63
2018-10-19T01:27:56.228Z,15.93
2018-10-19T01:30:24.492Z,15.07
2018-10-19T01:32:52.804Z,16.93
2018-10-19T01:35:20.945Z,15.23
2018-10-19T01:37:49.317Z,16.13
2018-10-19T01:40:17.812Z,15.40
2018-10-19T01:42:45.882Z,17.10
2018-10-19T01:45:14.023Z,17.53
2018-10-19T01:47:42.500Z,16.37
2018-10-19T01:50:14.096Z,17.93
2018-10-19T01:52:42.240Z,16.43
2018-10-19T01:55:10.544Z,15.13
2018-10-19T01:57:38.928Z,17.07
2018-10-19T02:00:07.226Z,15.47
2018-10-19T02:02:35.393Z,14.80
2018-10-19T02:05:03.786Z,17.40
2018-10-19T02:07:31.930Z,16.83
2018-10-19T02:10:00.153Z,19.00
2018-10-19T02:12:28.473Z,16.63
2018-10-19T02:14:56.837Z,18.13
2018-10-19T02:17:25.031Z,18.03
2018-10-19T02:19:53.568Z,17.00
2018-10-19T02:22:21.797Z,18.17
2018-10-19T02:24:49.953Z,15.60
2018-10-19T02:27:18.183Z,15.30
2018-10-19T02:29:46.358Z,18.80
2018-10-19T02:32:14.634Z,20.27
2018-10-19T02:34:42.798Z,17.97
2018-10-19T02:37:10.952Z,19.30
2018-10-19T02:39:39.207Z,19.37
2018-10-19T02:42:07.547Z,17.90
2018-10-19T02:44:35.742Z,18.17
2018-10-19T02:47:04.201Z,15.23
2018-10-19T02:49:32.374Z,19.57
2018-10-19T02:52:00.474Z,17.27
2018-10-19T02:54:28.700Z,18.20
2018-10-19T02:56:57.510Z,18.20
2018-10-19T02:59:26.334Z,18.40
2018-10-19T03:01:54.700Z,17.47
2018-10-19T03:04:23.133Z,14.03
2018-10-19T03:06:51.346Z,16.47
2018-10-19T03:09:19.531Z,17.10
2018-10-19T03:11:47.718Z,17.70
2018-10-19T03:14:15.868Z,18.93
2018-10-19T03:16:44.265Z,19.50
2018-10-19T03:19:12.485Z,15.77
2018-10-19T03:21:40.789Z,18.80
2018-10-19T03:24:08.996Z,18.10
2018-10-19T03:26:37.163Z,18.67
2018-10-19T03:29:05.520Z,18.80
2018-10-19T03:31:33.724Z,18.33
2018-10-19T03:34:02.067Z,19.30
2018-10-19T03:36:30.342Z,19.83
2018-10-19T03:38:58.852Z,17.60
2018-10-19T03:41:27.041Z,17.97
2018-10-19T03:43:55.222Z,17.20
2018-10-19T03:46:23.506Z,20.17
2018-10-19T03:48:51.814Z,23.03
2018-10-19T03:51:20.063Z,17.53
2018-10-19T03:53:48.202Z,17.40
2018-10-19T03:56:16.371Z,21.80
2018-10-19T03:58:44.685Z,17.07
2018-10-19T04:01:12.892Z,17.00
2018-10-19T04:03:41.258Z,18.93
2018-10-19T04:06:09.336Z,16.93
2018-10-19T04:08:37.374Z,17.50
2018-10-19T04:11:05.717Z,18.53
2018-10-19T04:13:33.856Z,19.63
2018-10-19T04:16:02.374Z,20.80
2018-10-19T04:18:30.603Z,21.87
2018-10-19T04:20:58.875Z,18.60
2018-10-19T04:23:27.055Z,21.13
2018-10-19T04:25:55.314Z,23.03
2018-10-19T04:28:23.478Z,20.57
2018-10-19T04:30:51.695Z,17.97
2018-10-19T04:33:19.876Z,18.40
2018-10-19T04:35:48.005Z,27.17
2018-10-19T04:38:16.381Z,21.60
2018-10-19T04:40:44.968Z,21.93
2018-10-19T04:43:13.262Z,22.40
2018-10-19T04:45:41.836Z,22.60
2018-10-19T04:48:10.485Z,19.57
2018-10-19T04:50:38.783Z,22.40
2018-10-19T04:53:08.523Z,22.83
2018-10-19T04:55:36.971Z,23.27
2018-10-19T04:58:05.413Z,20.00
2018-10-19T05:00:33.832Z,19.00
2018-10-19T05:03:02.308Z,22.57
2018-10-19T05:05:30.508Z,21.30
2018-10-19T05:07:58.572Z,20.77
2018-10-19T05:10:26.550Z,20.07
2018-10-19T05:12:54.728Z,20.20
2018-10-19T05:15:22.945Z,22.37
2018-10-19T05:17:51.174Z,20.03
2018-10-19T05:20:19.453Z,21.87
2018-10-19T05:22:47.570Z,22.70
2018-10-19T05:25:16.009Z,23.10
2018-10-19T05:27:44.163Z,19.90
2018-10-19T05:30:13.057Z,24.80
2018-10-19T05:32:42.358Z,22.67
2018-10-19T05:35:10.799Z,21.47
2018-10-19T05:37:40.044Z,20.37
2018-10-19T05:40:11.275Z,25.60
2018-10-19T05:42:40.073Z,22.37
2018-10-19T05:45:11.259Z,29.30
2018-10-19T05:47:39.906Z,24.10
2018-10-19T05:50:09.933Z,27.33
2018-10-19T05:52:38.333Z,27.27
2018-10-19T05:55:07.015Z,32.03
2018-10-19T05:57:35.520Z,26.75
2018-10-19T06:00:04.406Z,26.97
2018-10-19T06:02:32.746Z,27.43
2018-10-19T06:05:01.345Z,31.53
2018-10-19T06:07:29.600Z,26.03
2018-10-19T06:09:58.131Z,31.60
2018-10-19T06:12:26.351Z,32.03
2018-10-19T06:14:55.047Z,25.10
2018-10-19T06:17:23.493Z,29.63
2018-10-19T06:19:52.233Z,30.10
2018-10-19T06:22:20.444Z,28.03
2018-10-19T06:24:48.603Z,28.87
2018-10-19T06:27:17.962Z,30.20
2018-10-19T06:29:46.167Z,30.10
2018-10-19T06:32:17.010Z,31.33
2018-10-19T06:34:45.286Z,31.83
2018-10-19T06:37:13.578Z,31.40
2018-10-19T06:39:41.736Z,30.53
2018-10-19T06:42:09.984Z,32.40
2018-10-19T06:44:38.199Z,31.30
2018-10-19T06:47:07.193Z,28.77
2018-10-19T06:49:35.205Z,34.20
2018-10-19T06:52:03.443Z,29.73
2018-10-19T06:54:31.617Z,31.23
2018-10-19T06:56:59.826Z,28.47
2018-10-19T06:59:28.169Z,32.00
2018-10-19T07:01:56.457Z,28.80
2018-10-19T07:04:24.663Z,28.90
2018-10-19T07:06:52.817Z,29.23
2018-10-19T07:09:21.257Z,30.03
2018-10-19T07:11:49.440Z,27.17
2018-10-19T07:14:18.432Z,26.67
2018-10-19T07:16:46.483Z,27.40
2018-10-19T07:19:14.709Z,30.10
2018-10-19T07:21:42.985Z,31.50
2018-10-19T07:24:11.128Z,27.93
2018-10-19T07:26:39.385Z,29.47
2018-10-19T07:29:07.650Z,31.30
2018-10-19T07:31:35.853Z,28.73
2018-10-19T07:34:04.946Z,27.30
2018-10-19T07:36:33.546Z,30.43
2018-10-19T07:39:01.741Z,32.50
2018-10-19T07:41:30.093Z,30.40
2018-10-19T07:43:58.402Z,29.20
2018-10-19T07:46:27.209Z,27.37
2018-10-19T07:48:55.361Z,27.37
2018-10-19T07:51:23.647Z,29.70
2018-10-19T07:53:51.785Z,28.67
2018-10-19T07:56:20.601Z,28.13
2018-10-19T07:58:48.831Z,30.87
2018-10-19T08:01:17.113Z,27.80
2018-10-19T08:03:45.382Z,31.90
2018-10-19T08:06:13.641Z,27.30
2018-10-19T08:08:41.990Z,31.67
2018-10-19T08:11:10.301Z,28.67
2018-10-19T08:13:38.395Z,27.73
2018-10-19T08:16:06.503Z,27.50
2018-10-19T08:18:39.160Z,29.27
2018-10-19T08:21:07.882Z,31.07
2018-10-19T08:23:36.248Z,27.27
2018-10-19T08:26:04.696Z,30.43
2018-10-19T08:28:33.269Z,29.57
2018-10-19T08:31:01.468Z,30.73
2018-10-19T08:33:29.657Z,28.00
2018-10-19T08:35:57.935Z,28.03
2018-10-19T08:38:26.751Z,28.53
2018-10-19T08:40:55.057Z,27.93
2018-10-19T08:43:23.201Z,26.00
2018-10-19T08:45:51.605Z,27.10
2018-10-19T08:48:19.817Z,28.60
2018-10-19T08:50:48.076Z,25.80
2018-10-19T08:53:16.408Z,26.00
2018-10-19T08:55:44.484Z,25.97
2018-10-19T08:58:19.422Z,30.93
2018-10-19T09:00:47.511Z,24.83
2018-10-19T09:03:15.860Z,26.13
2018-10-19T09:05:44.045Z,23.43
2018-10-19T09:08:12.275Z,25.27
2018-10-19T09:10:40.688Z,27.37
2018-10-19T09:13:08.812Z,24.70
2018-10-19T09:15:36.900Z,23.37
2018-10-19T09:18:12.155Z,27.33
2018-10-19T09:20:40.483Z,26.27
2018-10-19T09:23:08.782Z,24.90
2018-10-19T09:25:37.019Z,22.00
2018-10-19T09:28:05.343Z,24.90
2018-10-19T09:30:33.543Z,26.03
2018-10-19T09:33:01.849Z,25.20
2018-10-19T09:35:30.209Z,25.77
2018-10-19T09:37:58.483Z,27.43
2018-10-19T09:40:26.831Z,24.03
2018-10-19T09:42:55.238Z,24.10
2018-10-19T09:45:23.519Z,23.93
2018-10-19T09:47:51.747Z,25.73
2018-10-19T09:50:19.933Z,22.23
2018-10-19T09:52:48.183Z,25.43
2018-10-19T09:55:16.553Z,25.07
2018-10-19T09:57:44.962Z,25.73
2018-10-19T10:00:18.761Z,23.43
2018-10-19T10:02:47.771Z,23.80
2018-10-19T10:05:16.010Z,27.53
2018-10-19T10:07:44.308Z,25.13
2018-10-19T10:10:12.671Z,22.67
2018-10-19T10:12:41.183Z,20.57
2018-10-19T10:15:09.327Z,22.17
2018-10-19T10:17:37.560Z,25.37
2018-10-19T10:20:06.979Z,24.20
2018-10-19T10:22:35.187Z,21.30
2018-10-19T10:25:03.487Z,24.37
2018-10-19T10:27:31.561Z,22.40
2018-10-19T10:29:59.930Z,24.13
2018-10-19T10:32:28.156Z,22.53
2018-10-19T10:34:56.289Z,20.27
2018-10-19T10:37:24.542Z,26.33
2018-10-19T10:39:52.674Z,22.60
2018-10-19T10:42:20.924Z,24.60
2018-10-19T10:44:49.268Z,22.63
2018-10-19T10:47:17.445Z,23.77
2018-10-19T10:49:45.518Z,20.80
2018-10-19T10:52:13.730Z,21.60
2018-10-19T10:54:41.992Z,23.40
2018-10-19T10:57:10.219Z,21.77
2018-10-19T10:59:38.399Z,21.73
2018-10-19T11:02:06.670Z,20.50
2018-10-19T11:04:34.859Z,20.80
2018-10-19T11:07:03.206Z,22.43
2018-10-19T11:09:31.340Z,25.43
2018-10-19T11:11:59.577Z,23.60
2018-10-19T11:14:27.761Z,21.33
2018-10-19T11:16:55.963Z,23.00
2018-10-19T11:19:24.394Z,39.33
2018-10-19T11:21:52.773Z,22.93
2018-10-19T11:24:20.900Z,21.27
2018-10-19T11:26:49.232Z,18.77
2018-10-19T11:29:17.558Z,20.93
2018-10-19T11:31:46.310Z,23.33
2018-10-19T11:34:14.527Z,23.83
2018-10-19T11:36:45.506Z,23.40
2018-10-19T11:39:13.684Z,20.80
2018-10-19T11:41:42.030Z,19.37
2018-10-19T11:44:10.172Z,25.03
2018-10-19T11:46:38.308Z,19.90
2018-10-19T11:49:06.635Z,18.73
2018-10-19T11:51:34.899Z,23.97
2018-10-19T11:54:03.369Z,20.33
2018-10-19T11:56:31.499Z,20.60
2018-10-19T11:58:59.657Z,23.50
2018-10-19T12:01:28.102Z,23.50
2018-10-19T12:03:56.336Z,20.60
2018-10-19T12:06:24.710Z,20.00
2018-10-19T12:08:52.869Z,23.27
2018-10-19T12:11:21.636Z,22.60
2018-10-19T12:13:49.955Z,21.70
2018-10-19T12:16:18.359Z,21.70
2018-10-19T12:18:46.623Z,20.87
2018-10-19T12:21:15.081Z,19.67
2018-10-19T12:23:43.235Z,25.27
2018-10-19T12:26:11.534Z,19.20
2018-10-19T12:28:39.622Z,20.10
2018-10-19T12:31:08.412Z,21.70
2018-10-19T12:33:36.590Z,22.33
2018-10-19T12:36:05.263Z,19.30
2018-10-19T12:38:33.440Z,18.30
2018-10-19T12:41:01.744Z,18.63
2018-10-19T12:43:29.903Z,23.30
2018-10-19T12:47:43.209Z,21.10
2018-10-19T12:50:11.750Z,21.10
2018-10-19T12:52:39.933Z,21.50
2018-10-19T12:55:08.820Z,21.33
2018-10-19T12:57:36.996Z,17.30
2018-10-19T13:00:07.377Z,17.50
2018-10-19T13:02:35.496Z,17.93
2018-10-19T13:05:03.784Z,17.97
2018-10-19T13:07:31.974Z,21.10
2018-10-19T13:10:00.419Z,22.53
2018-10-19T13:12:28.550Z,17.10
2018-10-19T13:14:56.825Z,17.60
2018-10-19T13:17:25.048Z,20.27
2018-10-19T13:19:53.369Z,20.70
2018-10-19T13:22:21.591Z,22.23
2018-10-19T13:24:49.826Z,19.63
2018-10-19T13:27:18.025Z,19.43
2018-10-19T13:29:46.256Z,19.07
2018-10-19T13:32:14.529Z,21.27
2018-10-19T13:34:42.769Z,20.43
2018-10-19T13:37:10.951Z,22.20
2018-10-19T13:39:39.139Z,22.20
2018-10-19T13:42:07.873Z,20.07
2018-10-19T13:44:36.064Z,19.77
2018-10-19T13:47:04.955Z,21.73
2018-10-19T13:49:33.307Z,19.83
2018-10-19T13:52:01.753Z,20.30
2018-10-19T13:54:30.010Z,19.77
2018-10-19T13:56:59.277Z,23.43
2018-10-19T13:59:27.912Z,27.50
2018-10-19T14:01:56.613Z,22.30
2018-10-19T14:04:25.484Z,21.30
2018-10-19T14:06:54.075Z,24.43
2018-10-19T14:09:22.827Z,20.03
2018-10-19T14:11:52.156Z,20.47
2018-10-19T14:14:30.473Z,22.07
2018-10-19T14:16:59.706Z,23.00
2018-10-19T14:19:28.238Z,24.00
2018-10-19T14:21:57.108Z,23.93
2018-10-19T14:24:25.907Z,24.37
2018-10-19T14:26:54.590Z,27.50
2018-10-19T14:29:22.997Z,26.67
2018-10-19T14:31:52.420Z,26.63
2018-10-19T14:34:21.170Z,24.57
2018-10-19T14:36:50.270Z,24.10
2018-10-19T14:39:19.378Z,22.87
2018-10-19T14:41:48.057Z,21.77
2018-10-19T14:44:16.903Z,23.70
2018-10-19T14:46:57.297Z,22.10
2018-10-19T14:49:27.128Z,25.30
2018-10-19T14:51:57.002Z,22.13
2018-10-19T14:54:25.881Z,24.70
2018-10-19T14:56:54.754Z,22.17
2018-10-19T14:59:23.506Z,24.40
2018-10-19T15:01:52.701Z,22.27
2018-10-19T15:04:21.710Z,31.70
2018-10-19T15:06:50.190Z,25.33
2018-10-19T15:09:18.669Z,25.03
2018-10-19T15:11:47.440Z,25.90
2018-10-19T15:14:15.729Z,23.00
2018-10-19T15:16:44.224Z,26.33
2018-10-19T15:19:12.889Z,24.47
2018-10-19T15:21:41.553Z,24.67
2018-10-19T15:24:10.456Z,22.30
2018-10-19T15:26:39.135Z,23.20
2018-10-19T15:29:07.721Z,25.47
2018-10-19T15:31:36.639Z,27.13
2018-10-19T15:34:05.490Z,25.97
2018-10-19T15:36:34.122Z,25.90
2018-10-19T15:39:02.713Z,24.00
2018-10-19T15:41:31.256Z,25.43
2018-10-19T15:43:59.979Z,25.00
2018-10-19T15:46:28.540Z,27.83
2018-10-19T15:48:57.248Z,25.90
2018-10-19T15:51:26.184Z,23.50
2018-10-19T15:53:54.591Z,25.83
2018-10-19T15:56:23.956Z,27.93
2018-10-19T15:58:52.484Z,26.17
2018-10-19T16:01:21.063Z,29.10
2018-10-19T16:03:49.643Z,25.67
2018-10-19T16:06:18.538Z,28.30
2018-10-19T16:08:47.041Z,28.73
2018-10-19T16:11:15.976Z,26.00
2018-10-19T16:13:44.541Z,24.70
2018-10-19T16:16:13.106Z,24.37
2018-10-19T16:18:45.131Z,25.73
2018-10-19T16:21:14.866Z,26.80
2018-10-19T16:23:43.179Z,25.10
2018-10-19T16:26:11.612Z,24.73
2018-10-19T16:28:40.209Z,26.47
2018-10-19T16:31:08.985Z,26.90
2018-10-19T16:33:37.485Z,25.97
2018-10-19T16:36:06.485Z,28.47
2018-10-19T16:38:35.221Z,25.60
2018-10-19T16:41:04.772Z,25.70
2018-10-19T16:43:33.643Z,25.83
2018-10-19T16:46:02.297Z,28.53
2018-10-19T16:48:31.018Z,30.47
2018-10-19T16:51:00.443Z,29.40
2018-10-19T16:53:29.178Z,26.40
2018-10-19T16:55:57.805Z,28.03
2018-10-19T16:58:26.604Z,27.10
2018-10-19T17:00:55.025Z,25.20
2018-10-19T17:03:23.849Z,27.17
2018-10-19T17:05:54.019Z,27.50
2018-10-19T17:08:22.712Z,27.73
2018-10-19T17:10:51.913Z,27.80
2018-10-19T17:13:20.605Z,30.13
2018-10-19T17:15:48.967Z,31.37
2018-10-19T17:18:17.637Z,29.00
2018-10-19T17:20:46.725Z,30.83
2018-10-19T17:23:15.245Z,31.80
2018-10-19T17:25:44.147Z,29.93
2018-10-19T17:28:12.719Z,32.27
2018-10-19T17:30:41.363Z,30.10
2018-10-19T17:33:11.007Z,29.33
2018-10-19T17:35:40.023Z,27.37
2018-10-19T17:38:08.478Z,29.87
2018-10-19T17:40:37.075Z,27.27
2018-10-19T17:43:06.113Z,28.13
2018-10-19T17:45:34.366Z,27.80
2018-10-19T17:48:02.840Z,26.13
2018-10-19T17:50:31.944Z,26.70
2018-10-19T17:53:00.906Z,30.83
2018-10-19T17:55:29.308Z,31.10
2018-10-19T17:57:57.697Z,23.57
2018-10-19T18:00:26.340Z,26.80
2018-10-19T18:02:54.667Z,26.70
2018-10-19T18:05:23.080Z,28.03
2018-10-19T18:07:51.758Z,28.20
2018-10-19T18:10:20.175Z,29.03
2018-10-19T18:12:48.656Z,26.30
2018-10-19T18:15:17.260Z,27.20
2018-10-19T18:17:45.842Z,26.33
2018-10-19T18:20:14.707Z,29.30
2018-10-19T18:22:44.350Z,27.90
2018-10-19T18:25:16.319Z,29.73
2018-10-19T18:27:45.048Z,23.90
2018-10-19T18:30:13.632Z,29.13
2018-10-19T18:32:42.125Z,26.50
2018-10-19T18:35:11.679Z,25.10
2018-10-19T18:37:40.550Z,24.73
2018-10-19T18:40:10.812Z,29.93
2018-10-19T18:42:39.342Z,23.40
2018-10-19T18:45:08.801Z,23.30
2018-10-19T18:47:37.722Z,28.00
2018-10-19T18:50:07.209Z,25.20
2018-10-19T18:52:35.562Z,27.77
2018-10-19T18:55:04.119Z,26.50
2018-10-19T18:57:32.433Z,26.23
2018-10-19T19:00:01.220Z,29.03
2018-10-19T19:02:29.594Z,29.93
2018-10-19T19:04:58.492Z,28.30
2018-10-19T19:07:26.836Z,28.73
2018-10-19T19:10:00.877Z,25.63
2018-10-19T19:12:29.215Z,27.43
2018-10-19T19:14:57.768Z,29.13
2018-10-19T19:17:26.500Z,28.70
2018-10-19T19:20:00.475Z,24.80
2018-10-19T19:22:29.564Z,28.80
2018-10-19T19:25:03.451Z,23.93
2018-10-19T19:27:31.685Z,25.70
2018-10-19T19:30:00.016Z,26.87
2018-10-19T19:32:28.470Z,22.47
2018-10-19T19:34:56.877Z,24.53
2018-10-19T19:37:25.354Z,25.83
2018-10-19T19:39:54.000Z,24.80
2018-10-19T19:42:27.843Z,23.07
2018-10-19T19:44:56.232Z,26.13
2018-10-19T19:47:30.033Z,26.50
2018-10-19T19:50:02.589Z,22.87
2018-10-19T19:52:31.015Z,23.47
2018-10-19T19:54:59.429Z,25.80
2018-10-19T19:57:28.134Z,27.57
2018-10-19T19:59:56.521Z,26.73
2018-10-19T20:02:25.091Z,25.00
2018-10-19T20:04:53.376Z,25.87
2018-10-19T20:07:21.676Z,24.77
2018-10-19T20:09:50.939Z,24.50
2018-10-19T20:12:19.773Z,24.10
2018-10-19T20:14:48.145Z,24.33
2018-10-19T20:17:16.653Z,24.63
2018-10-19T20:19:44.995Z,28.30
2018-10-19T20:22:13.393Z,25.90
2018-10-19T20:24:41.727Z,23.57
2018-10-19T20:27:10.162Z,25.70
2018-10-19T20:29:38.436Z,25.40
2018-10-19T20:32:06.918Z,28.17
2018-10-19T20:34:35.418Z,25.47
2018-10-19T20:37:03.928Z,26.47
2018-10-19T20:39:32.198Z,27.77
2018-10-19T20:42:00.419Z,25.20
2018-10-19T20:44:28.670Z,25.90
2018-10-19T20:46:57.124Z,25.50
2018-10-19T20:49:26.181Z,27.60
2018-10-19T20:51:54.449Z,25.20
2018-10-19T20:54:23.726Z,27.13
2018-10-19T20:56:52.111Z,25.13
2018-10-19T20:59:20.409Z,26.70
2018-10-19T21:01:49.201Z,27.27
2018-10-19T21:04:17.666Z,25.43
2018-10-19T21:06:46.172Z,28.50
2018-10-19T21:09:14.485Z,24.60
2018-10-19T21:11:42.992Z,27.23
2018-10-19T21:14:11.392Z,23.57
2018-10-19T21:16:39.548Z,24.43
2018-10-19T21:19:08.440Z,24.97
2018-10-19T21:21:36.721Z,25.90
2018-10-19T21:24:05.339Z,25.83
2018-10-19T21:26:33.577Z,23.87
2018-10-19T21:29:01.812Z,27.20
2018-10-19T21:31:30.071Z,22.17
2018-10-19T21:33:58.378Z,25.90
2018-10-19T21:36:26.702Z,25.20
2018-10-19T21:38:55.083Z,24.67
2018-10-19T21:41:23.352Z,24.40
2018-10-19T21:43:51.670Z,25.63
2018-10-19T21:46:19.870Z,24.23
2018-10-19T21:48:48.164Z,28.50
2018-10-19T21:51:16.437Z,24.60
2018-10-19T21:53:44.826Z,27.10
2018-10-19T21:56:13.489Z,23.97
2018-10-19T21:58:41.682Z,25.40
2018-10-19T22:01:10.035Z,25.67
2018-10-19T22:03:38.417Z,26.57
2018-10-19T22:06:06.720Z,25.40
2018-10-19T22:08:34.882Z,28.87
2018-10-19T22:11:04.172Z,30.63
2018-10-19T22:13:32.374Z,26.20
2018-10-19T22:16:00.856Z,24.90
2018-10-19T22:18:29.015Z,23.43
2018-10-19T22:20:57.380Z,26.23
2018-10-19T22:23:25.964Z,28.17
2018-10-19T22:25:54.217Z,24.07
2018-10-19T22:28:22.585Z,23.03
2018-10-19T22:30:50.824Z,24.60
2018-10-19T22:33:19.083Z,28.33
2018-10-19T22:35:47.293Z,29.80
2018-10-19T22:38:15.582Z,22.07
2018-10-19T22:40:43.773Z,22.67
2018-10-19T22:43:12.190Z,23.57
2018-10-19T22:45:40.412Z,22.70
2018-10-19T22:48:08.674Z,22.57
2018-10-19T22:50:36.836Z,21.70
2018-10-19T22:53:05.395Z,25.57
2018-10-19T22:55:33.584Z,24.07
2018-10-19T22:58:01.911Z,23.17
2018-10-19T23:00:30.258Z,26.00
2018-10-19T23:02:58.686Z,23.40
2018-10-19T23:05:26.951Z,23.90
2018-10-19T23:07:55.225Z,25.63
2018-10-19T23:10:23.427Z,24.00
2018-10-19T23:12:51.672Z,23.40
2018-10-19T23:15:19.848Z,23.63
2018-10-19T23:17:48.038Z,23.00
2018-10-19T23:20:16.192Z,25.20
2018-10-19T23:22:44.319Z,21.43
2018-10-19T23:25:12.547Z,20.90
2018-10-19T23:27:40.735Z,24.10
2018-10-19T23:30:08.932Z,21.43
2018-10-19T23:32:37.097Z,19.50
2018-10-19T23:35:06.835Z,23.40
2018-10-19T23:37:35.210Z,23.50
2018-10-19T23:40:03.569Z,21.90
2018-10-19T23:42:31.817Z,26.17
2018-10-19T23:45:00.062Z,22.87
2018-10-19T23:47:28.214Z,20.60
2018-10-19T23:49:56.368Z,24.27
2018-10-19T23:52:27.574Z,23.90
2018-10-19T23:54:55.765Z,23.90
2018-10-19T23:57:24.092Z,24.00
2018-10-19T23:59:52.241Z,22.93
